sensor_id;sensor_type;location;lat;lon;timestamp;pressure;altitude;pressure_sealevel;temperature;humidity
80777;BME280;70169;51.262;6.336;2023-06-22T00:00:35;101267.56;;;21.10;61.83
80777;BME280;70169;51.262;6.336;2023-06-22T00:02:50;101258.13;;;21.07;62.10
80777;BME280;70169;51.262;6.336;2023-06-22T00:05:05;101261.63;;;21.08;62.50
80777;BME280;70169;51.262;6.336;2023-06-22T00:07:21;101260.78;;;21.07;62.45
80777;BME280;70169;51.262;6.336;2023-06-22T00:09:36;101254.88;;;21.05;62.53
80777;BME280;70169;51.262;6.336;2023-06-22T00:11:52;101264.81;;;21.05;62.57
80777;BME280;70169;51.262;6.336;2023-06-22T00:14:07;101258.66;;;21.04;62.50
80777;BME280;70169;51.262;6.336;2023-06-22T00:16:22;101253.28;;;21.04;62.90
80777;BME280;70169;51.262;6.336;2023-06-22T00:18:38;101256.22;;;21.03;63.40
80777;BME280;70169;51.262;6.336;2023-06-22T00:20:55;101247.31;;;21.02;63.60
80777;BME280;70169;51.262;6.336;2023-06-22T00:23:12;101248.66;;;21.00;63.41
80777;BME280;70169;51.262;6.336;2023-06-22T00:25:30;101241.66;;;20.99;64.08
80777;BME280;70169;51.262;6.336;2023-06-22T00:27:46;101249.19;;;20.97;63.62
80777;BME280;70169;51.262;6.336;2023-06-22T00:30:02;101244.56;;;20.92;63.95
80777;BME280;70169;51.262;6.336;2023-06-22T00:32:17;101242.13;;;20.90;64.89
80777;BME280;70169;51.262;6.336;2023-06-22T00:34:33;101243.94;;;20.85;64.44
80777;BME280;70169;51.262;6.336;2023-06-22T00:36:49;101252.84;;;20.85;64.74
80777;BME280;70169;51.262;6.336;2023-06-22T00:39:06;101247.72;;;20.84;64.93
80777;BME280;70169;51.262;6.336;2023-06-22T00:41:22;101252.53;;;20.82;64.93
80777;BME280;70169;51.262;6.336;2023-06-22T00:43:38;101247.09;;;20.76;64.63
80777;BME280;70169;51.262;6.336;2023-06-22T00:45:55;101247.38;;;20.75;64.84
80777;BME280;70169;51.262;6.336;2023-06-22T00:48:12;101244.44;;;20.76;65.12
80777;BME280;70169;51.262;6.336;2023-06-22T00:50:30;101248.19;;;20.75;65.36
80777;BME280;70169;51.262;6.336;2023-06-22T00:52:55;101248.44;;;20.74;65.41
80777;BME280;70169;51.262;6.336;2023-06-22T00:55:14;101241.44;;;20.73;65.62
80777;BME280;70169;51.262;6.336;2023-06-22T00:57:32;101243.06;;;20.74;65.75
80777;BME280;70169;51.262;6.336;2023-06-22T00:59:48;101239.56;;;20.73;65.84
80777;BME280;70169;51.262;6.336;2023-06-22T01:02:04;101237.97;;;20.72;65.75
80777;BME280;70169;51.262;6.336;2023-06-22T01:04:19;101235.81;;;20.74;66.08
80777;BME280;70169;51.262;6.336;2023-06-22T01:07:00;101231.00;;;20.76;66.51
80777;BME280;70169;51.262;6.336;2023-06-22T01:09:20;101237.19;;;20.77;66.86
80777;BME280;70169;51.262;6.336;2023-06-22T01:11:41;101229.94;;;20.77;66.87
80777;BME280;70169;51.262;6.336;2023-06-22T01:14:12;101228.88;;;20.79;66.85
80777;BME280;70169;51.262;6.336;2023-06-22T01:16:31;101224.81;;;20.76;66.86
80777;BME280;70169;51.262;6.336;2023-06-22T01:18:51;101230.75;;;20.78;66.33
80777;BME280;70169;51.262;6.336;2023-06-22T01:21:08;101222.69;;;20.78;66.46
80777;BME280;70169;51.262;6.336;2023-06-22T01:23:51;101220.50;;;20.75;66.57
80777;BME280;70169;51.262;6.336;2023-06-22T01:26:17;101219.19;;;20.77;66.56
80777;BME280;70169;51.262;6.336;2023-06-22T01:31:01;101215.19;;;20.80;66.57
80777;BME280;70169;51.262;6.336;2023-06-22T01:33:20;101208.69;;;20.76;66.02
80777;BME280;70169;51.262;6.336;2023-06-22T01:35:37;101212.50;;;20.80;66.21
80777;BME280;70169;51.262;6.336;2023-06-22T01:37:53;101216.78;;;20.81;66.37
80777;BME280;70169;51.262;6.336;2023-06-22T01:40:09;101211.16;;;20.83;66.04
80777;BME280;70169;51.262;6.336;2023-06-22T01:42:25;101211.41;;;20.81;66.54
80777;BME280;70169;51.262;6.336;2023-06-22T01:44:41;101207.13;;;20.80;66.93
80777;BME280;70169;51.262;6.336;2023-06-22T01:46:56;101205.25;;;20.81;66.85
80777;BME280;70169;51.262;6.336;2023-06-22T01:49:12;101192.59;;;20.76;67.14
80777;BME280;70169;51.262;6.336;2023-06-22T01:51:27;101211.13;;;20.77;67.08
80777;BME280;70169;51.262;6.336;2023-06-22T01:53:43;101197.91;;;20.71;66.80
80777;BME280;70169;51.262;6.336;2023-06-22T01:55:58;101202.16;;;20.67;66.96
80777;BME280;70169;51.262;6.336;2023-06-22T01:58:13;101208.13;;;20.69;66.98
80777;BME280;70169;51.262;6.336;2023-06-22T02:00:32;101206.22;;;20.69;67.34
80777;BME280;70169;51.262;6.336;2023-06-22T02:03:00;101205.44;;;20.69;67.54
80777;BME280;70169;51.262;6.336;2023-06-22T02:05:18;101205.44;;;20.69;67.20
80777;BME280;70169;51.262;6.336;2023-06-22T02:07:44;101208.38;;;20.67;67.24
80777;BME280;70169;51.262;6.336;2023-06-22T02:10:02;101196.00;;;20.66;67.32
80777;BME280;70169;51.262;6.336;2023-06-22T02:12:25;101198.13;;;20.64;66.83
80777;BME280;70169;51.262;6.336;2023-06-22T02:14:42;101193.00;;;20.63;67.21
80777;BME280;70169;51.262;6.336;2023-06-22T02:16:58;101194.03;;;20.62;67.25
80777;BME280;70169;51.262;6.336;2023-06-22T02:19:16;101189.69;;;20.55;66.98
80777;BME280;70169;51.262;6.336;2023-06-22T02:21:33;101192.66;;;20.59;67.14
80777;BME280;70169;51.262;6.336;2023-06-22T02:23:49;101194.28;;;20.60;67.10
80777;BME280;70169;51.262;6.336;2023-06-22T02:26:04;101194.28;;;20.60;67.03
80777;BME280;70169;51.262;6.336;2023-06-22T02:28:19;101191.06;;;20.58;67.24
80777;BME280;70169;51.262;6.336;2023-06-22T02:30:35;101190.81;;;20.59;67.26
80777;BME280;70169;51.262;6.336;2023-06-22T02:32:50;101180.59;;;20.62;67.42
80777;BME280;70169;51.262;6.336;2023-06-22T02:35:13;101187.03;;;20.61;67.40
80777;BME280;70169;51.262;6.336;2023-06-22T02:37:28;101183.00;;;20.58;67.48
80777;BME280;70169;51.262;6.336;2023-06-22T02:39:44;101188.13;;;20.59;67.30
80777;BME280;70169;51.262;6.336;2023-06-22T02:42:00;101177.09;;;20.56;67.54
80777;BME280;70169;51.262;6.336;2023-06-22T02:44:15;101192.38;;;20.55;67.57
80777;BME280;70169;51.262;6.336;2023-06-22T02:46:31;101189.69;;;20.55;67.40
80777;BME280;70169;51.262;6.336;2023-06-22T02:48:46;101189.13;;;20.53;67.43
80777;BME280;70169;51.262;6.336;2023-06-22T02:51:01;101179.69;;;20.51;67.58
80777;BME280;70169;51.262;6.336;2023-06-22T02:53:17;101174.84;;;20.48;67.56
80777;BME280;70169;51.262;6.336;2023-06-22T02:55:32;101186.97;;;20.50;67.63
80777;BME280;70169;51.262;6.336;2023-06-22T02:57:47;101182.91;;;20.48;67.80
80777;BME280;70169;51.262;6.336;2023-06-22T03:00:03;101183.41;;;20.45;67.71
80777;BME280;70169;51.262;6.336;2023-06-22T03:02:31;101176.97;;;20.46;67.91
80777;BME280;70169;51.262;6.336;2023-06-22T03:04:47;101179.91;;;20.44;68.21
80777;BME280;70169;51.262;6.336;2023-06-22T03:07:04;101171.06;;;20.44;68.60
80777;BME280;70169;51.262;6.336;2023-06-22T03:09:19;101163.75;;;20.39;68.58
80777;BME280;70169;51.262;6.336;2023-06-22T03:11:35;101161.88;;;20.39;68.53
80777;BME280;70169;51.262;6.336;2023-06-22T03:13:50;101155.41;;;20.35;68.74
80777;BME280;70169;51.262;6.336;2023-06-22T03:16:07;101158.34;;;20.34;68.59
80777;BME280;70169;51.262;6.336;2023-06-22T03:18:22;101155.91;;;20.32;68.65
80777;BME280;70169;51.262;6.336;2023-06-22T03:20:37;101153.75;;;20.29;68.63
80777;BME280;70169;51.262;6.336;2023-06-22T03:22:53;101140.81;;;20.26;68.85
80777;BME280;70169;51.262;6.336;2023-06-22T03:25:09;101145.66;;;20.24;68.73
80777;BME280;70169;51.262;6.336;2023-06-22T03:27:25;101139.69;;;20.22;68.92
80777;BME280;70169;51.262;6.336;2023-06-22T03:29:40;101138.09;;;20.21;69.20
80777;BME280;70169;51.262;6.336;2023-06-22T03:31:56;101132.97;;;20.19;69.22
80777;BME280;70169;51.262;6.336;2023-06-22T03:34:11;101121.69;;;20.17;69.29
80777;BME280;70169;51.262;6.336;2023-06-22T03:36:26;101123.56;;;20.17;69.57
80777;BME280;70169;51.262;6.336;2023-06-22T03:38:41;101121.69;;;20.17;69.56
80777;BME280;70169;51.262;6.336;2023-06-22T03:40:57;101124.38;;;20.17;69.57
80777;BME280;70169;51.262;6.336;2023-06-22T03:43:12;101118.69;;;20.14;69.67
80777;BME280;70169;51.262;6.336;2023-06-22T03:45:28;101122.50;;;20.18;69.53
80777;BME280;70169;51.262;6.336;2023-06-22T03:47:43;101127.88;;;20.18;69.64
80777;BME280;70169;51.262;6.336;2023-06-22T03:49:58;101113.06;;;20.15;69.75
80777;BME280;70169;51.262;6.336;2023-06-22T03:52:14;101124.69;;;20.21;69.71
80777;BME280;70169;51.262;6.336;2023-06-22T03:54:29;101129.53;;;20.24;69.68
80777;BME280;70169;51.262;6.336;2023-06-22T03:56:45;101128.72;;;20.23;69.62
80777;BME280;70169;51.262;6.336;2023-06-22T03:59:00;101119.06;;;20.22;69.22
80777;BME280;70169;51.262;6.336;2023-06-22T04:01:15;101125.28;;;20.28;69.60
80777;BME280;70169;51.262;6.336;2023-06-22T04:03:32;101126.91;;;20.29;69.73
80777;BME280;70169;51.262;6.336;2023-06-22T04:05:47;101128.53;;;20.30;69.69
80777;BME280;70169;51.262;6.336;2023-06-22T04:08:03;101131.22;;;20.30;69.70
80777;BME280;70169;51.262;6.336;2023-06-22T04:10:19;101138.19;;;20.31;69.63
80777;BME280;70169;51.262;6.336;2023-06-22T04:12:34;101132.28;;;20.29;69.60
80777;BME280;70169;51.262;6.336;2023-06-22T04:14:49;101123.66;;;20.27;69.65
80777;BME280;70169;51.262;6.336;2023-06-22T04:17:05;101130.63;;;20.28;69.77
80777;BME280;70169;51.262;6.336;2023-06-22T04:19:20;101131.72;;;20.27;69.75
80777;BME280;70169;51.262;6.336;2023-06-22T04:21:35;101130.09;;;20.26;70.10
80777;BME280;70169;51.262;6.336;2023-06-22T04:23:52;101124.97;;;20.25;69.92
80777;BME280;70169;51.262;6.336;2023-06-22T04:26:07;101127.41;;;20.26;70.01
80777;BME280;70169;51.262;6.336;2023-06-22T04:28:23;101124.19;;;20.24;70.13
80777;BME280;70169;51.262;6.336;2023-06-22T04:30:38;101117.94;;;20.18;70.04
80777;BME280;70169;51.262;6.336;2023-06-22T04:33:02;101117.94;;;20.18;70.19
80777;BME280;70169;51.262;6.336;2023-06-22T04:35:17;101118.19;;;20.17;70.34
80777;BME280;70169;51.262;6.336;2023-06-22T04:37:33;101121.97;;;20.16;70.38
80777;BME280;70169;51.262;6.336;2023-06-22T04:39:49;101123.25;;;20.13;70.06
80777;BME280;70169;51.262;6.336;2023-06-22T04:42:04;101121.34;;;20.09;70.38
80777;BME280;70169;51.262;6.336;2023-06-22T04:44:20;101128.06;;;20.11;70.46
80777;BME280;70169;51.262;6.336;2023-06-22T04:46:41;101125.16;;;20.13;70.58
80777;BME280;70169;51.262;6.336;2023-06-22T04:48:57;101119.19;;;20.11;70.50
80777;BME280;70169;51.262;6.336;2023-06-22T04:51:12;101122.72;;;20.11;70.66
80777;BME280;70169;51.262;6.336;2023-06-22T04:53:27;101128.38;;;20.15;71.19
80777;BME280;70169;51.262;6.336;2023-06-22T04:55:44;101125.19;;;20.18;71.35
80777;BME280;70169;51.262;6.336;2023-06-22T04:58:00;101116.88;;;20.19;70.99
80777;BME280;70169;51.262;6.336;2023-06-22T05:00:20;101108.56;;;20.21;71.11
80777;BME280;70169;51.262;6.336;2023-06-22T05:02:39;101113.13;;;20.20;70.84
80777;BME280;70169;51.262;6.336;2023-06-22T05:04:54;101109.38;;;20.21;71.01
80777;BME280;70169;51.262;6.336;2023-06-22T05:07:12;101112.06;;;20.21;71.16
80777;BME280;70169;51.262;6.336;2023-06-22T05:09:27;101121.16;;;20.20;70.72
80777;BME280;70169;51.262;6.336;2023-06-22T05:11:44;101117.69;;;20.20;70.69
80777;BME280;70169;51.262;6.336;2023-06-22T05:13:59;101123.31;;;20.18;70.65
80777;BME280;70169;51.262;6.336;2023-06-22T05:16:14;101116.59;;;20.16;71.01
80777;BME280;70169;51.262;6.336;2023-06-22T05:18:30;101129.75;;;20.17;70.77
80777;BME280;70169;51.262;6.336;2023-06-22T05:20:46;101122.47;;;20.13;71.03
80777;BME280;70169;51.262;6.336;2023-06-22T05:23:01;101134.28;;;20.17;71.20
80777;BME280;70169;51.262;6.336;2023-06-22T05:25:16;101141.28;;;20.18;71.40
80777;BME280;70169;51.262;6.336;2023-06-22T05:27:32;101135.66;;;20.19;72.01
80777;BME280;70169;51.262;6.336;2023-06-22T05:29:47;101128.13;;;20.16;72.03
80777;BME280;70169;51.262;6.336;2023-06-22T05:32:03;101136.22;;;20.21;72.06
80777;BME280;70169;51.262;6.336;2023-06-22T05:34:18;101139.91;;;20.15;72.12
80777;BME280;70169;51.262;6.336;2023-06-22T05:36:34;101143.72;;;20.19;72.17
80777;BME280;70169;51.262;6.336;2023-06-22T05:38:49;101143.72;;;20.19;72.37
80777;BME280;70169;51.262;6.336;2023-06-22T05:41:05;101143.72;;;20.19;72.56
80777;BME280;70169;51.262;6.336;2023-06-22T05:43:20;101143.72;;;20.19;72.68
80777;BME280;70169;51.262;6.336;2023-06-22T05:45:35;101144.78;;;20.18;72.91
80777;BME280;70169;51.262;6.336;2023-06-22T05:47:50;101139.91;;;20.15;72.80
80777;BME280;70169;51.262;6.336;2023-06-22T05:50:06;101144.28;;;20.21;73.15
80777;BME280;70169;51.262;6.336;2023-06-22T05:52:23;101142.63;;;20.20;72.96
80777;BME280;70169;51.262;6.336;2023-06-22T05:54:38;101147.75;;;20.22;72.77
80777;BME280;70169;51.262;6.336;2023-06-22T05:56:54;101141.84;;;20.20;73.23
80777;BME280;70169;51.262;6.336;2023-06-22T05:59:09;101141.88;;;20.25;73.27
80777;BME280;70169;51.262;6.336;2023-06-22T06:01:25;101143.25;;;20.28;73.53
80777;BME280;70169;51.262;6.336;2023-06-22T06:03:41;101145.44;;;20.31;73.42
80777;BME280;70169;51.262;6.336;2023-06-22T06:05:56;101144.38;;;20.32;73.38
80777;BME280;70169;51.262;6.336;2023-06-22T06:08:12;101147.38;;;20.35;73.12
80777;BME280;70169;51.262;6.336;2023-06-22T06:10:27;101153.03;;;20.39;73.23
80777;BME280;70169;51.262;6.336;2023-06-22T06:12:44;101148.19;;;20.41;73.09
80777;BME280;70169;51.262;6.336;2023-06-22T06:15:00;101149.56;;;20.44;72.96
80777;BME280;70169;51.262;6.336;2023-06-22T06:17:15;101147.44;;;20.46;72.98
80777;BME280;70169;51.262;6.336;2023-06-22T06:19:30;101146.94;;;20.49;72.98
80777;BME280;70169;51.262;6.336;2023-06-22T06:21:45;101142.38;;;20.49;72.79
80777;BME280;70169;51.262;6.336;2023-06-22T06:24:02;101150.75;;;20.53;72.65
80777;BME280;70169;51.262;6.336;2023-06-22T06:26:17;101142.19;;;20.56;72.76
80777;BME280;70169;51.262;6.336;2023-06-22T06:28:33;101143.78;;;20.57;72.58
80777;BME280;70169;51.262;6.336;2023-06-22T06:30:48;101140.59;;;20.60;72.30
80777;BME280;70169;51.262;6.336;2023-06-22T06:33:04;101130.63;;;20.61;72.27
80777;BME280;70169;51.262;6.336;2023-06-22T06:35:38;101131.72;;;20.59;72.01
80777;BME280;70169;51.262;6.336;2023-06-22T06:37:53;101131.16;;;20.57;72.04
80777;BME280;70169;51.262;6.336;2023-06-22T06:40:09;101132.59;;;20.65;72.21
80777;BME280;70169;51.262;6.336;2023-06-22T06:42:25;101131.03;;;20.69;72.05
80777;BME280;70169;51.262;6.336;2023-06-22T06:44:41;101123.50;;;20.71;71.99
80777;BME280;70169;51.262;6.336;2023-06-22T06:46:56;101127.84;;;20.77;71.90
80777;BME280;70169;51.262;6.336;2023-06-22T06:49:12;101112.28;;;20.80;72.29
80777;BME280;70169;51.262;6.336;2023-06-22T06:51:28;101125.47;;;20.86;71.75
80777;BME280;70169;51.262;6.336;2023-06-22T06:53:43;101127.13;;;20.87;71.77
80777;BME280;70169;51.262;6.336;2023-06-22T06:55:59;101120.69;;;20.88;71.51
80777;BME280;70169;51.262;6.336;2023-06-22T06:58:14;101117.69;;;20.85;71.38
80777;BME280;70169;51.262;6.336;2023-06-22T07:00:30;101112.88;;;20.87;71.34
80777;BME280;70169;51.262;6.336;2023-06-22T07:02:45;101120.16;;;20.91;71.17
80777;BME280;70169;51.262;6.336;2023-06-22T07:05:03;101123.66;;;20.92;70.48
80777;BME280;70169;51.262;6.336;2023-06-22T07:07:19;101129.03;;;20.92;70.34
80777;BME280;70169;51.262;6.336;2023-06-22T07:09:34;101128.50;;;20.90;70.33
80777;BME280;70169;51.262;6.336;2023-06-22T07:11:49;101121.75;;;20.87;70.09
80777;BME280;70169;51.262;6.336;2023-06-22T07:14:05;101119.84;;;20.88;70.54
80777;BME280;70169;51.262;6.336;2023-06-22T07:16:20;101120.38;;;20.85;70.71
80777;BME280;70169;51.262;6.336;2023-06-22T07:18:36;101116.34;;;20.82;70.72
80777;BME280;70169;51.262;6.336;2023-06-22T07:20:51;101116.59;;;20.81;70.34
80777;BME280;70169;51.262;6.336;2023-06-22T07:23:06;101117.91;;;20.78;70.59
80777;BME280;70169;51.262;6.336;2023-06-22T07:25:22;101122.47;;;20.77;71.02
80777;BME280;70169;51.262;6.336;2023-06-22T07:28:01;101118.41;;;20.75;71.47
80777;BME280;70169;51.262;6.336;2023-06-22T07:30:17;101115.19;;;20.73;71.80
80777;BME280;70169;51.262;6.336;2023-06-22T07:32:32;101103.91;;;20.71;71.95
80777;BME280;70169;51.262;6.336;2023-06-22T07:34:48;101099.59;;;20.70;72.23
80777;BME280;70169;51.262;6.336;2023-06-22T07:37:03;101098.78;;;20.69;72.35
80777;BME280;70169;51.262;6.336;2023-06-22T07:39:19;101091.53;;;20.70;72.82
80777;BME280;70169;51.262;6.336;2023-06-22T07:41:40;101080.78;;;20.70;73.12
80777;BME280;70169;51.262;6.336;2023-06-22T07:43:56;101084.00;;;20.72;73.05
80777;BME280;70169;51.262;6.336;2023-06-22T07:46:11;101076.53;;;20.74;72.99
80777;BME280;70169;51.262;6.336;2023-06-22T07:48:26;101073.59;;;20.75;73.16
80777;BME280;70169;51.262;6.336;2023-06-22T07:50:42;101063.38;;;20.77;73.26
80777;BME280;70169;51.262;6.336;2023-06-22T07:52:57;101047.81;;;20.80;72.92
80777;BME280;70169;51.262;6.336;2023-06-22T07:55:13;101048.13;;;20.88;73.07
80777;BME280;70169;51.262;6.336;2023-06-22T07:57:28;101042.53;;;20.95;73.18
80777;BME280;70169;51.262;6.336;2023-06-22T07:59:51;101036.13;;;21.01;73.08
80777;BME280;70169;51.262;6.336;2023-06-22T08:02:06;101030.22;;;21.09;72.75
80777;BME280;70169;51.262;6.336;2023-06-22T08:04:23;101019.50;;;21.15;72.68
80777;BME280;70169;51.262;6.336;2023-06-22T08:06:39;101030.00;;;21.26;72.50
80777;BME280;70169;51.262;6.336;2023-06-22T08:08:54;101016.31;;;21.33;72.12
80777;BME280;70169;51.262;6.336;2023-06-22T08:11:12;101025.75;;;21.46;71.74
80777;BME280;70169;51.262;6.336;2023-06-22T08:13:27;101029.88;;;21.64;71.56
80777;BME280;70169;51.262;6.336;2023-06-22T08:15:42;101026.94;;;21.71;70.68
80777;BME280;70169;51.262;6.336;2023-06-22T08:17:58;101029.94;;;21.95;70.38
80777;BME280;70169;51.262;6.336;2023-06-22T08:20:14;101029.94;;;22.15;70.39
80777;BME280;70169;51.262;6.336;2023-06-22T08:22:29;101032.63;;;22.36;69.14
80777;BME280;70169;51.262;6.336;2023-06-22T08:24:45;101027.19;;;22.62;69.12
80777;BME280;70169;51.262;6.336;2023-06-22T08:27:00;101020.41;;;22.74;68.13
80777;BME280;70169;51.262;6.336;2023-06-22T08:29:16;101024.19;;;22.79;66.73
80777;BME280;70169;51.262;6.336;2023-06-22T08:31:31;101024.72;;;22.81;67.55
80777;BME280;70169;51.262;6.336;2023-06-22T08:33:50;101020.13;;;22.86;67.04
80777;BME280;70169;51.262;6.336;2023-06-22T08:36:05;101016.63;;;22.86;67.27
80777;BME280;70169;51.262;6.336;2023-06-22T08:38:21;101016.09;;;22.84;67.32
80777;BME280;70169;51.262;6.336;2023-06-22T08:40:36;100998.03;;;22.79;67.66
80777;BME280;70169;51.262;6.336;2023-06-22T08:42:51;101006.13;;;22.79;68.10
80777;BME280;70169;51.262;6.336;2023-06-22T08:45:07;101004.78;;;22.82;68.50
80777;BME280;70169;51.262;6.336;2023-06-22T08:47:23;100997.75;;;22.86;68.84
80777;BME280;70169;51.262;6.336;2023-06-22T08:49:38;100991.53;;;22.90;68.67
80777;BME280;70169;51.262;6.336;2023-06-22T08:51:53;100996.91;;;23.01;68.88
80777;BME280;70169;51.262;6.336;2023-06-22T08:54:11;100996.88;;;23.11;68.43
80777;BME280;70169;51.262;6.336;2023-06-22T08:56:26;100999.50;;;23.21;68.20
80777;BME280;70169;51.262;6.336;2023-06-22T08:58:41;101005.41;;;23.28;66.97
80777;BME280;70169;51.262;6.336;2023-06-22T09:00:57;101002.09;;;23.42;65.72
80777;BME280;70169;51.262;6.336;2023-06-22T09:03:14;101003.69;;;23.48;65.39
80777;BME280;70169;51.262;6.336;2023-06-22T09:05:30;101001.50;;;23.50;65.02
80777;BME280;70169;51.262;6.336;2023-06-22T09:07:45;100999.34;;;23.47;64.74
80777;BME280;70169;51.262;6.336;2023-06-22T09:10:01;100997.00;;;23.35;64.78
80777;BME280;70169;51.262;6.336;2023-06-22T09:12:19;100998.91;;;23.29;65.31
80777;BME280;70169;51.262;6.336;2023-06-22T09:14:35;100998.16;;;23.24;65.40
80777;BME280;70169;51.262;6.336;2023-06-22T09:16:51;100987.91;;;23.21;65.85
80777;BME280;70169;51.262;6.336;2023-06-22T09:19:06;100995.22;;;23.15;66.14
80777;BME280;70169;51.262;6.336;2023-06-22T09:21:23;100996.06;;;23.10;65.95
80777;BME280;70169;51.262;6.336;2023-06-22T09:23:38;100993.94;;;23.07;65.91
80777;BME280;70169;51.262;6.336;2023-06-22T09:25:53;100992.25;;;23.17;66.23
80777;BME280;70169;51.262;6.336;2023-06-22T09:28:09;100993.28;;;23.26;66.28
80777;BME280;70169;51.262;6.336;2023-06-22T09:30:24;100988.41;;;23.33;66.49
80777;BME280;70169;51.262;6.336;2023-06-22T09:32:39;100989.41;;;23.42;65.91
80777;BME280;70169;51.262;6.336;2023-06-22T09:34:55;100992.63;;;23.49;64.62
80777;BME280;70169;51.262;6.336;2023-06-22T09:37:10;100983.91;;;23.58;65.22
80777;BME280;70169;51.262;6.336;2023-06-22T09:39:25;100982.44;;;23.76;65.51
80777;BME280;70169;51.262;6.336;2023-06-22T09:41:41;100978.81;;;23.91;64.48
80777;BME280;70169;51.262;6.336;2023-06-22T09:43:56;100963.31;;;24.07;64.26
80777;BME280;70169;51.262;6.336;2023-06-22T09:46:11;100957.69;;;24.27;65.12
80777;BME280;70169;51.262;6.336;2023-06-22T09:48:27;100941.97;;;24.34;63.70
80777;BME280;70169;51.262;6.336;2023-06-22T09:50:43;100942.25;;;24.33;63.38
80777;BME280;70169;51.262;6.336;2023-06-22T09:52:59;100956.78;;;24.37;63.70
80777;BME280;70169;51.262;6.336;2023-06-22T09:55:14;100952.72;;;24.39;63.66
80777;BME280;70169;51.262;6.336;2023-06-22T09:57:31;100952.19;;;24.37;63.51
80777;BME280;70169;51.262;6.336;2023-06-22T09:59:46;100950.31;;;24.38;63.84
80777;BME280;70169;51.262;6.336;2023-06-22T10:02:02;100970.28;;;24.37;64.07
80777;BME280;70169;51.262;6.336;2023-06-22T10:04:17;100966.56;;;24.33;63.53
80777;BME280;70169;51.262;6.336;2023-06-22T10:06:32;100964.72;;;24.28;64.07
80777;BME280;70169;51.262;6.336;2023-06-22T10:08:48;100965.28;;;24.25;64.27
80777;BME280;70169;51.262;6.336;2023-06-22T10:11:03;100965.53;;;24.29;64.85
80777;BME280;70169;51.262;6.336;2023-06-22T10:13:19;100960.41;;;24.27;64.64
80777;BME280;70169;51.262;6.336;2023-06-22T10:15:35;100964.47;;;24.25;65.29
80777;BME280;70169;51.262;6.336;2023-06-22T10:17:50;100969.66;;;24.21;65.02
80777;BME280;70169;51.262;6.336;2023-06-22T10:20:06;100973.81;;;24.08;65.05
80777;BME280;70169;51.262;6.336;2023-06-22T10:22:28;100974.19;;;23.96;65.32
80777;BME280;70169;51.262;6.336;2023-06-22T10:24:43;100988.09;;;23.84;65.46
80777;BME280;70169;51.262;6.336;2023-06-22T10:26:59;100999.47;;;23.71;66.11
80777;BME280;70169;51.262;6.336;2023-06-22T10:29:15;101005.50;;;23.58;66.68
80777;BME280;70169;51.262;6.336;2023-06-22T10:31:30;101009.91;;;23.43;66.96
80777;BME280;70169;51.262;6.336;2023-06-22T10:33:45;101012.69;;;23.33;67.38
80777;BME280;70169;51.262;6.336;2023-06-22T10:36:01;101017.31;;;23.22;67.51
80777;BME280;70169;51.262;6.336;2023-06-22T10:38:16;101027.03;;;23.18;68.03
80777;BME280;70169;51.262;6.336;2023-06-22T10:40:31;101030.03;;;23.11;68.25
80777;BME280;70169;51.262;6.336;2023-06-22T10:42:47;101024.91;;;23.05;68.44
80777;BME280;70169;51.262;6.336;2023-06-22T10:45:02;101023.56;;;22.97;69.43
80777;BME280;70169;51.262;6.336;2023-06-22T10:47:18;101025.47;;;22.97;70.03
80777;BME280;70169;51.262;6.336;2023-06-22T10:49:33;101032.22;;;22.94;70.51
80777;BME280;70169;51.262;6.336;2023-06-22T10:51:48;101016.06;;;22.89;71.44
80777;BME280;70169;51.262;6.336;2023-06-22T10:54:04;101016.88;;;22.84;71.69
80777;BME280;70169;51.262;6.336;2023-06-22T10:56:19;101021.75;;;22.82;71.89
80777;BME280;70169;51.262;6.336;2023-06-22T10:58:35;101013.16;;;22.75;72.03
80777;BME280;70169;51.262;6.336;2023-06-22T11:00:50;101019.09;;;22.67;72.20
80777;BME280;70169;51.262;6.336;2023-06-22T11:03:05;101023.16;;;22.64;72.66
80777;BME280;70169;51.262;6.336;2023-06-22T11:05:21;101024.78;;;22.60;73.00
80777;BME280;70169;51.262;6.336;2023-06-22T11:07:37;101040.41;;;22.58;73.16
80777;BME280;70169;51.262;6.336;2023-06-22T11:09:53;101041.50;;;22.52;73.87
80777;BME280;70169;51.262;6.336;2023-06-22T11:12:08;101015.09;;;22.49;74.16
80777;BME280;70169;51.262;6.336;2023-06-22T11:14:24;101001.91;;;22.42;74.88
80777;BME280;70169;51.262;6.336;2023-06-22T11:16:43;100998.72;;;22.35;75.27
80777;BME280;70169;51.262;6.336;2023-06-22T11:18:58;100992.22;;;22.26;75.55
80777;BME280;70169;51.262;6.336;2023-06-22T11:21:14;100979.84;;;22.19;76.38
80777;BME280;70169;51.262;6.336;2023-06-22T11:23:29;100973.94;;;22.12;76.93
80777;BME280;70169;51.262;6.336;2023-06-22T11:25:45;100956.97;;;22.07;77.02
80777;BME280;70169;51.262;6.336;2023-06-22T11:28:04;100945.41;;;22.01;77.43
80777;BME280;70169;51.262;6.336;2023-06-22T11:30:20;100940.00;;;21.96;77.45
80777;BME280;70169;51.262;6.336;2023-06-22T11:32:35;100928.72;;;21.94;77.79
80777;BME280;70169;51.262;6.336;2023-06-22T11:34:50;100905.03;;;21.91;78.33
80777;BME280;70169;51.262;6.336;2023-06-22T11:37:06;100894.81;;;21.93;78.11
80777;BME280;70169;51.262;6.336;2023-06-22T11:39:21;100895.09;;;21.91;78.37
80777;BME280;70169;51.262;6.336;2023-06-22T11:41:36;100888.91;;;21.91;78.40
80777;BME280;70169;51.262;6.336;2023-06-22T11:43:52;100887.03;;;21.91;78.53
80777;BME280;70169;51.262;6.336;2023-06-22T11:46:07;100881.09;;;21.89;78.40
80777;BME280;70169;51.262;6.336;2023-06-22T11:48:24;100890.25;;;21.93;78.40
80777;BME280;70169;51.262;6.336;2023-06-22T11:50:39;100889.44;;;21.93;78.46
80777;BME280;70169;51.262;6.336;2023-06-22T11:52:54;100886.47;;;21.94;78.24
80777;BME280;70169;51.262;6.336;2023-06-22T11:55:10;100889.44;;;21.98;78.68